createdAt,value
2022-10-11T00:05:16.573Z,25.00
2022-10-11T00:11:26.569Z,28.70
2022-10-11T00:31:30.856Z,25.30
2022-10-11T00:39:14.289Z,24.10
2022-10-11T00:43:36.909Z,16.70
2022-10-11T00:55:56.714Z,28.00
2022-10-11T01:01:10.893Z,29.40
2022-10-11T01:06:26.169Z,30.90
2022-10-11T01:11:39.337Z,27.90
2022-10-11T01:17:12.662Z,20.00
2022-10-11T02:07:16.022Z,31.30
2022-10-11T02:12:58.368Z,26.70
2022-10-11T02:19:05.677Z,28.90
2022-10-11T02:24:41.229Z,26.30
2022-10-11T02:30:02.220Z,28.80
2022-10-11T02:35:54.737Z,35.20
2022-10-11T02:56:13.964Z,31.40
2022-10-11T03:02:19.991Z,25.30
2022-10-11T03:07:39.014Z,34.80
2022-10-11T03:12:58.057Z,21.90
2022-10-11T03:25:57.784Z,21.20
2022-10-11T03:46:20.087Z,24.20
2022-10-11T03:52:18.242Z,21.20
2022-10-11T03:57:41.994Z,21.60
2022-10-11T04:03:09.894Z,24.70
2022-10-11T05:06:31.323Z,21.10
2022-10-11T05:17:46.100Z,15.80
2022-10-11T05:23:32.892Z,18.60
2022-10-11T05:29:11.109Z,20.70
2022-10-11T05:35:22.584Z,18.90
2022-10-11T05:40:30.288Z,71.40
2022-10-11T05:45:48.999Z,27.90
2022-10-11T05:58:09.971Z,24.40
2022-10-11T06:03:42.852Z,16.50
2022-10-11T06:09:07.624Z,22.80
2022-10-11T06:14:15.751Z,22.30
2022-10-11T06:19:37.677Z,18.00
2022-10-11T06:24:45.490Z,15.30
2022-10-11T06:29:59.438Z,20.00
2022-10-11T06:35:09.654Z,12.80
2022-10-11T06:40:21.583Z,15.90
2022-10-11T06:46:08.696Z,14.40
2022-10-11T06:51:51.160Z,24.80
2022-10-11T06:57:16.096Z,12.60
2022-10-11T07:02:45.757Z,19.40
2022-10-11T07:07:56.141Z,14.30
2022-10-11T07:19:07.756Z,17.20
2022-10-11T07:24:15.656Z,23.40
2022-10-11T07:29:25.038Z,15.20
2022-10-11T07:34:35.017Z,12.20
2022-10-11T07:39:42.154Z,12.30
2022-10-11T07:44:49.253Z,15.60
2022-10-11T07:49:56.307Z,14.60
2022-10-11T07:55:03.555Z,17.50
2022-10-11T08:00:13.109Z,12.30
2022-10-11T08:05:20.625Z,13.20
2022-10-11T08:15:34.881Z,15.60
2022-10-11T08:20:45.941Z,18.50
2022-10-11T08:25:59.400Z,19.80
2022-10-11T08:31:06.824Z,17.80
2022-10-11T08:36:14.559Z,15.70
2022-10-11T08:41:31.643Z,15.50
2022-10-11T08:46:41.418Z,14.10
2022-10-11T08:51:52.605Z,13.90
2022-10-11T08:57:01.847Z,12.90
2022-10-11T09:02:21.245Z,18.40
2022-10-11T09:07:46.851Z,17.80
2022-10-11T09:13:06.115Z,12.20
2022-10-11T09:18:32.399Z,15.40
2022-10-11T09:24:00.397Z,13.00
2022-10-11T09:29:18.684Z,11.50
2022-10-11T09:34:32.524Z,18.00
2022-10-11T09:39:45.405Z,12.50
2022-10-11T09:44:55.000Z,19.50
2022-10-11T09:50:05.105Z,24.60
2022-10-11T09:55:33.942Z,17.90
2022-10-11T10:00:41.254Z,15.60
2022-10-11T10:06:05.481Z,26.30
2022-10-11T10:11:14.475Z,9.60
2022-10-11T10:16:31.064Z,20.10
2022-10-11T10:21:40.090Z,25.00
2022-10-11T10:27:09.287Z,18.00
2022-10-11T10:32:23.895Z,13.80
2022-10-11T10:37:35.406Z,19.50
2022-10-11T10:42:42.722Z,14.70
2022-10-11T10:48:09.287Z,12.40
2022-10-11T10:53:26.872Z,13.60
2022-10-11T10:58:52.333Z,10.20
2022-10-11T11:04:08.913Z,13.20
2022-10-11T11:09:29.308Z,18.80
2022-10-11T11:14:46.759Z,18.80
2022-10-11T11:20:10.010Z,12.80
2022-10-11T11:25:32.039Z,13.90
2022-10-11T11:30:51.292Z,22.50
2022-10-11T11:36:03.425Z,14.30
2022-10-11T11:41:18.429Z,17.60
2022-10-11T11:46:30.244Z,13.30
2022-10-11T11:51:44.509Z,17.50
2022-10-11T11:57:02.615Z,9.90
2022-10-11T12:02:31.707Z,12.00
2022-10-11T12:07:51.815Z,12.70
2022-10-11T12:13:20.703Z,12.40
2022-10-11T12:18:29.435Z,14.40
2022-10-11T12:23:48.399Z,13.70
2022-10-11T12:29:28.778Z,8.00
2022-10-11T12:39:54.221Z,15.60
2022-10-11T12:45:35.539Z,17.60
2022-10-11T12:50:52.356Z,13.90
2022-10-11T12:56:09.206Z,17.30
2022-10-11T13:01:23.114Z,19.70
2022-10-11T13:06:33.513Z,14.50
2022-10-11T13:11:46.882Z,17.50
2022-10-11T13:17:17.156Z,15.50
2022-10-11T13:22:26.721Z,14.50
2022-10-11T13:27:34.674Z,21.30
2022-10-11T13:32:43.808Z,22.00
2022-10-11T13:37:51.543Z,8.60
2022-10-11T13:42:59.655Z,16.10
2022-10-11T13:48:14.643Z,8.60
2022-10-11T13:53:29.187Z,15.50
2022-10-11T13:58:42.192Z,10.50
2022-10-11T14:03:56.704Z,11.40
2022-10-11T14:09:07.614Z,13.00
2022-10-11T14:14:44.417Z,17.00
2022-10-11T14:20:14.641Z,18.40
2022-10-11T14:25:23.122Z,8.30
2022-10-11T14:30:32.077Z,11.60
2022-10-11T14:35:40.755Z,12.80
2022-10-11T14:40:54.459Z,11.40
2022-10-11T14:46:01.974Z,15.80
2022-10-11T14:51:11.929Z,12.10
2022-10-11T14:56:21.623Z,21.30
2022-10-11T15:01:29.422Z,24.90
2022-10-11T15:06:39.547Z,28.10
2022-10-11T15:11:46.783Z,28.80
2022-10-11T15:16:56.305Z,22.10
2022-10-11T15:22:06.283Z,33.50
2022-10-11T15:27:17.405Z,13.20
2022-10-11T15:32:24.669Z,20.10
2022-10-11T15:37:37.108Z,20.20
2022-10-11T15:42:46.710Z,22.60
2022-10-11T15:47:55.514Z,21.00
2022-10-11T15:53:04.611Z,22.40
2022-10-11T15:58:17.236Z,17.30
2022-10-11T16:03:29.465Z,23.70
2022-10-11T16:08:42.181Z,36.30
2022-10-11T16:13:53.436Z,27.00
2022-10-11T16:19:01.106Z,22.00
2022-10-11T16:24:11.638Z,35.20
2022-10-11T16:29:24.935Z,27.70
2022-10-11T16:34:32.361Z,34.00
2022-10-11T16:39:39.708Z,48.10
2022-10-11T16:44:47.267Z,31.90
2022-10-11T16:49:54.763Z,36.00
2022-10-11T16:55:01.988Z,25.50
2022-10-11T17:00:13.019Z,33.00
2022-10-11T17:05:21.052Z,26.20
2022-10-11T17:10:39.654Z,38.10
2022-10-11T17:15:46.981Z,77.10
2022-10-11T17:21:01.127Z,41.10
2022-10-11T17:26:11.577Z,52.80
2022-10-11T17:31:19.997Z,54.30
2022-10-11T17:36:30.814Z,66.40
2022-10-11T17:41:38.609Z,58.10
2022-10-11T17:46:49.794Z,43.40
2022-10-11T17:52:00.095Z,37.60
2022-10-11T18:03:06.503Z,42.50
2022-10-11T18:08:34.337Z,36.10
2022-10-11T18:13:49.234Z,59.50
2022-10-11T18:18:57.965Z,36.20
2022-10-11T18:24:07.859Z,72.30
2022-10-11T18:29:15.221Z,48.20
2022-10-11T18:34:22.320Z,48.10
2022-10-11T18:39:29.393Z,60.40
2022-10-11T18:44:36.504Z,58.70
2022-10-11T18:49:43.575Z,29.80
2022-10-11T18:54:50.620Z,59.80
2022-10-11T18:59:57.780Z,58.00
2022-10-11T19:05:05.967Z,44.30
2022-10-11T19:10:29.500Z,57.80
2022-10-11T19:15:39.987Z,62.60
2022-10-11T19:20:49.181Z,35.50
2022-10-11T19:26:04.353Z,43.50
2022-10-11T19:31:17.907Z,29.90
2022-10-11T19:36:32.599Z,35.90
2022-10-11T19:41:44.640Z,41.10
2022-10-11T19:46:56.407Z,45.70
2022-10-11T19:52:04.928Z,51.10
2022-10-11T19:57:12.758Z,44.60
2022-10-11T20:02:20.962Z,40.90
2022-10-11T20:12:35.233Z,54.00
2022-10-11T20:17:52.320Z,70.50
2022-10-11T20:23:00.222Z,56.10
2022-10-11T20:33:15.169Z,45.80
2022-10-11T20:38:22.894Z,45.70
2022-10-11T20:43:30.824Z,36.60
2022-10-11T20:53:46.388Z,46.80
2022-10-11T20:58:56.219Z,50.40
2022-10-11T21:04:05.278Z,48.20
2022-10-11T21:09:15.665Z,45.30
2022-10-11T21:14:25.074Z,43.60
2022-10-11T21:24:39.005Z,39.70
2022-10-11T21:29:48.156Z,52.50
2022-10-11T21:34:55.867Z,36.20
2022-10-11T21:40:03.328Z,66.20
2022-10-11T21:45:11.011Z,47.30
2022-10-11T21:50:18.718Z,40.90
2022-10-11T22:00:33.388Z,41.80
2022-10-11T22:05:46.571Z,40.50
2022-10-11T22:10:59.612Z,48.30
2022-10-11T22:16:08.483Z,32.90
2022-10-11T22:21:18.159Z,45.70
2022-10-11T22:26:27.880Z,40.30
2022-10-11T22:31:36.368Z,49.90
2022-10-11T22:36:44.270Z,39.40
2022-10-11T22:41:51.876Z,39.90
2022-10-11T22:46:59.289Z,38.40
2022-10-11T22:52:06.978Z,34.60
2022-10-11T22:57:14.548Z,31.10
2022-10-11T23:02:23.360Z,42.70
2022-10-11T23:07:33.565Z,43.90
2022-10-11T23:12:41.262Z,41.70
2022-10-11T23:17:50.258Z,44.80
2022-10-11T23:22:57.708Z,39.00
2022-10-11T23:28:06.564Z,37.40
2022-10-11T23:33:16.908Z,43.80
2022-10-11T23:38:24.798Z,44.90
2022-10-11T23:43:32.759Z,39.80
2022-10-11T23:48:41.195Z,42.20
2022-10-11T23:53:49.536Z,39.00
